createdAt,value
2023-03-11T00:02:22.982Z,99.90
2023-03-11T00:04:49.845Z,99.90
2023-03-11T00:07:16.808Z,99.90
2023-03-11T00:09:43.713Z,99.90
2023-03-11T00:12:10.600Z,99.90
2023-03-11T00:14:37.449Z,99.90
2023-03-11T00:17:04.348Z,99.90
2023-03-11T00:19:31.143Z,99.90
2023-03-11T00:21:58.087Z,99.90
2023-03-11T00:24:25.333Z,99.90
2023-03-11T00:26:52.365Z,99.90
2023-03-11T00:29:19.214Z,99.90
2023-03-11T00:31:45.943Z,99.90
2023-03-11T00:34:12.851Z,99.90
2023-03-11T00:36:39.696Z,99.90
2023-03-11T00:39:06.877Z,99.90
2023-03-11T00:41:35.154Z,99.90
2023-03-11T00:44:01.979Z,99.90
2023-03-11T00:46:31.000Z,99.90
2023-03-11T00:48:57.841Z,99.90
2023-03-11T00:51:24.640Z,99.90
2023-03-11T00:53:51.475Z,99.90
2023-03-11T00:56:18.274Z,99.90
2023-03-11T00:58:45.963Z,99.90
2023-03-11T01:01:17.500Z,99.90
2023-03-11T01:03:44.467Z,99.90
2023-03-11T01:06:11.921Z,99.90
2023-03-11T01:08:39.143Z,99.90
2023-03-11T01:11:07.129Z,99.90
2023-03-11T01:13:35.576Z,99.90
2023-03-11T01:16:02.805Z,99.90
2023-03-11T01:18:29.795Z,99.90
2023-03-11T01:20:56.724Z,99.90
2023-03-11T01:23:23.647Z,99.90
2023-03-11T01:25:50.437Z,99.90
2023-03-11T01:28:17.489Z,99.90
2023-03-11T01:30:44.770Z,99.90
2023-03-11T01:33:20.164Z,99.90
2023-03-11T01:35:49.282Z,99.90
2023-03-11T01:38:17.150Z,99.90
2023-03-11T01:40:47.081Z,99.90
2023-03-11T01:43:44.458Z,99.90
2023-03-11T01:46:14.066Z,99.90
2023-03-11T01:48:45.104Z,99.90
2023-03-11T01:51:12.411Z,99.90
2023-03-11T01:53:39.939Z,99.90
2023-03-11T01:56:07.278Z,99.90
2023-03-11T01:58:39.411Z,99.90
2023-03-11T02:01:07.070Z,99.90
2023-03-11T02:03:39.505Z,99.90
2023-03-11T02:06:17.163Z,99.90
2023-03-11T02:08:45.694Z,99.90
2023-03-11T02:11:20.467Z,99.90
2023-03-11T02:13:48.795Z,99.90
2023-03-11T02:16:17.350Z,99.90
2023-03-11T02:18:45.196Z,99.90
2023-03-11T02:21:26.549Z,99.90
2023-03-11T02:24:12.726Z,99.90
2023-03-11T02:26:58.363Z,99.90
2023-03-11T02:29:27.835Z,99.90
2023-03-11T02:31:56.455Z,99.90
2023-03-11T02:34:26.512Z,99.90
2023-03-11T02:36:53.837Z,99.90
2023-03-11T02:39:39.737Z,99.90
2023-03-11T02:42:25.047Z,99.90
2023-03-11T02:45:00.377Z,99.90
2023-03-11T02:47:28.703Z,99.90
2023-03-11T02:49:57.043Z,99.90
2023-03-11T02:52:27.901Z,99.90
2023-03-11T02:54:55.601Z,99.90
2023-03-11T02:57:22.486Z,99.90
2023-03-11T02:59:49.466Z,99.90
2023-03-11T03:02:16.452Z,99.90
2023-03-11T03:04:43.186Z,99.90
2023-03-11T03:07:10.214Z,99.90
2023-03-11T03:09:37.306Z,99.90
2023-03-11T03:12:05.153Z,99.90
2023-03-11T03:14:32.006Z,99.90
2023-03-11T03:16:58.979Z,99.90
2023-03-11T03:19:26.026Z,99.90
2023-03-11T03:21:52.863Z,99.90
2023-03-11T03:24:19.639Z,99.90
2023-03-11T03:26:46.506Z,99.90
2023-03-11T03:29:13.301Z,99.90
2023-03-11T03:31:40.223Z,99.90
2023-03-11T03:34:07.102Z,99.90
2023-03-11T03:36:33.892Z,99.90
2023-03-11T03:39:01.562Z,99.90
2023-03-11T03:41:28.619Z,99.90
2023-03-11T03:43:55.445Z,99.90
2023-03-11T03:46:22.402Z,99.90
2023-03-11T03:48:49.289Z,99.90
2023-03-11T03:51:16.844Z,99.90
2023-03-11T03:53:43.859Z,99.90
2023-03-11T03:56:13.481Z,99.90
2023-03-11T03:58:40.704Z,99.90
2023-03-11T05:01:43.923Z,99.90
2023-03-11T05:04:12.087Z,99.90
2023-03-11T05:06:39.152Z,99.90
2023-03-11T05:09:06.004Z,99.90
2023-03-11T05:11:32.889Z,99.90
2023-03-11T05:13:59.741Z,99.90
2023-03-11T05:16:26.551Z,99.90
2023-03-11T05:18:53.409Z,99.90
2023-03-11T05:21:20.598Z,99.90
2023-03-11T05:23:47.639Z,99.90
2023-03-11T05:26:14.400Z,99.90
2023-03-11T05:28:41.655Z,99.90
2023-03-11T05:31:10.483Z,99.90
2023-03-11T05:33:37.731Z,99.90
2023-03-11T05:36:07.252Z,99.90
2023-03-11T05:38:34.815Z,99.90
2023-03-11T05:41:01.619Z,99.90
2023-03-11T05:43:28.711Z,99.90
2023-03-11T05:45:55.472Z,99.90
2023-03-11T05:48:22.316Z,99.90
2023-03-11T05:50:49.245Z,99.90
2023-03-11T05:53:16.068Z,99.90
2023-03-11T05:55:42.909Z,99.90
2023-03-11T05:58:09.776Z,99.90
2023-03-11T06:00:36.926Z,99.90
2023-03-11T06:03:03.757Z,99.90
2023-03-11T06:05:30.579Z,99.90
2023-03-11T06:07:57.366Z,99.90
2023-03-11T06:10:24.209Z,99.90
2023-03-11T06:12:50.978Z,99.90
2023-03-11T06:15:17.914Z,99.90
2023-03-11T06:17:44.729Z,99.90
2023-03-11T06:20:12.069Z,99.90
2023-03-11T06:22:40.248Z,99.90
2023-03-11T06:25:08.204Z,99.90
2023-03-11T06:27:35.332Z,99.90
2023-03-11T06:30:02.315Z,99.90
2023-03-11T06:32:29.817Z,99.90
2023-03-11T06:34:57.001Z,99.90
2023-03-11T06:37:25.544Z,99.90
2023-03-11T06:39:53.518Z,99.90
2023-03-11T06:42:23.932Z,99.90
2023-03-11T06:44:51.122Z,99.90
2023-03-11T06:47:18.047Z,99.90
2023-03-11T06:49:44.968Z,99.90
2023-03-11T06:52:11.944Z,99.90
2023-03-11T06:54:39.005Z,99.90
2023-03-11T06:57:08.663Z,99.90
2023-03-11T06:59:36.180Z,99.90
2023-03-11T07:02:04.751Z,99.90
2023-03-11T07:04:32.477Z,99.90
2023-03-11T07:06:59.641Z,99.90
2023-03-11T07:09:27.770Z,99.90
2023-03-11T07:11:55.510Z,99.90
2023-03-11T07:14:23.008Z,99.90
2023-03-11T07:16:50.045Z,99.90
2023-03-11T07:19:17.052Z,99.90
2023-03-11T07:21:44.302Z,99.90
2023-03-11T07:24:13.141Z,99.90
2023-03-11T07:26:40.906Z,99.90
2023-03-11T07:29:10.131Z,99.90
2023-03-11T07:31:37.554Z,99.90
2023-03-11T07:34:11.367Z,99.90
2023-03-11T07:36:41.023Z,99.90
2023-03-11T07:39:08.137Z,99.90
2023-03-11T07:41:36.530Z,99.90
2023-03-11T07:44:04.753Z,99.90
2023-03-11T07:46:32.162Z,99.90
2023-03-11T07:48:59.046Z,99.90
2023-03-11T07:51:28.487Z,99.90
2023-03-11T07:53:57.558Z,99.90
2023-03-11T07:56:26.046Z,99.90
2023-03-11T07:58:53.295Z,99.90
2023-03-11T08:01:23.385Z,99.90
2023-03-11T08:03:56.891Z,99.90
2023-03-11T08:06:29.138Z,99.90
2023-03-11T08:08:55.929Z,99.90
2023-03-11T08:11:22.960Z,99.90
2023-03-11T08:13:50.661Z,99.90
2023-03-11T08:16:20.948Z,99.90
2023-03-11T08:18:49.501Z,99.90
2023-03-11T08:21:19.264Z,99.90
2023-03-11T08:23:47.143Z,99.90
2023-03-11T08:26:17.386Z,99.90
2023-03-11T08:28:44.992Z,99.90
2023-03-11T08:31:15.225Z,99.90
2023-03-11T08:33:42.903Z,99.90
2023-03-11T08:36:10.008Z,99.90
2023-03-11T08:38:37.052Z,99.90
2023-03-11T08:41:04.772Z,99.90
2023-03-11T08:43:31.655Z,99.90
2023-03-11T08:46:01.343Z,99.90
2023-03-11T08:48:28.872Z,99.90
2023-03-11T08:50:56.325Z,99.90
2023-03-11T08:53:23.680Z,99.90
2023-03-11T08:55:51.587Z,99.90
2023-03-11T08:58:19.706Z,99.90
2023-03-11T09:00:46.922Z,99.90
2023-03-11T09:03:14.047Z,99.90
2023-03-11T09:05:41.465Z,99.90
2023-03-11T09:08:08.671Z,99.90
2023-03-11T09:10:35.822Z,99.90
2023-03-11T09:13:02.661Z,99.90
2023-03-11T09:15:29.608Z,99.90
2023-03-11T09:17:56.796Z,99.90
2023-03-11T09:20:23.734Z,99.90
2023-03-11T09:22:50.660Z,99.90
2023-03-11T09:25:17.497Z,99.90
2023-03-11T09:27:44.276Z,99.90
2023-03-11T09:30:11.703Z,99.90
2023-03-11T09:32:38.576Z,99.90
2023-03-11T09:35:05.895Z,99.90
2023-03-11T09:37:32.767Z,99.90
2023-03-11T09:39:59.562Z,99.90
2023-03-11T09:42:32.800Z,99.90
2023-03-11T09:45:02.649Z,99.90
2023-03-11T09:47:55.688Z,99.90
2023-03-11T09:50:45.401Z,99.90
2023-03-11T09:53:30.921Z,99.90
2023-03-11T09:56:00.203Z,99.90
2023-03-11T10:06:16.530Z,90.80
2023-03-11T10:08:48.923Z,89.20
2023-03-11T10:13:57.620Z,89.60
2023-03-11T10:16:35.501Z,89.50
2023-03-11T10:19:13.690Z,91.60
2023-03-11T10:21:50.395Z,93.70
2023-03-11T10:24:19.967Z,94.80
2023-03-11T10:26:54.830Z,95.90
2023-03-11T10:29:48.275Z,96.40
2023-03-11T10:32:20.712Z,95.40
2023-03-11T10:35:06.147Z,95.60
2023-03-11T10:37:48.889Z,96.40
2023-03-11T10:40:38.590Z,97.00
2023-03-11T10:43:16.134Z,97.10
2023-03-11T10:45:46.212Z,97.60
2023-03-11T10:48:15.814Z,97.30
2023-03-11T10:50:50.812Z,97.50
2023-03-11T10:53:19.899Z,96.70
2023-03-11T10:55:51.004Z,96.40
2023-03-11T10:58:21.533Z,95.50
2023-03-11T11:01:00.744Z,95.20
2023-03-11T11:03:28.342Z,95.40
2023-03-11T11:06:05.437Z,96.00
2023-03-11T11:08:33.321Z,95.20
2023-03-11T11:11:02.859Z,97.10
2023-03-11T11:13:32.491Z,97.10
2023-03-11T11:16:05.060Z,96.10
2023-03-11T11:18:42.803Z,92.10
2023-03-11T11:21:15.930Z,90.70
2023-03-11T11:23:44.720Z,90.80
2023-03-11T11:26:26.822Z,88.60
2023-03-11T11:29:10.150Z,91.00
2023-03-11T11:31:40.912Z,90.60
2023-03-11T11:34:27.381Z,92.00
2023-03-11T11:36:57.236Z,91.50
2023-03-11T11:39:26.928Z,91.60
2023-03-11T11:41:55.376Z,94.20
2023-03-11T11:44:25.110Z,93.80
2023-03-11T11:46:57.765Z,94.50
2023-03-11T11:49:28.714Z,93.90
2023-03-11T11:52:12.137Z,93.50
2023-03-11T11:54:42.599Z,92.20
2023-03-11T11:57:14.993Z,90.70
2023-03-11T11:59:43.404Z,89.70
2023-03-11T12:02:26.079Z,88.70
2023-03-11T12:04:56.570Z,90.10
2023-03-11T12:07:24.565Z,91.70
2023-03-11T12:10:12.912Z,93.30
2023-03-11T12:13:14.283Z,91.20
2023-03-11T12:15:50.776Z,83.90
2023-03-11T12:18:30.664Z,85.30
2023-03-11T12:20:57.997Z,85.80
2023-03-11T12:23:42.405Z,83.50
2023-03-11T12:26:26.333Z,81.90
2023-03-11T12:29:00.802Z,82.70
2023-03-11T12:31:33.856Z,83.20
2023-03-11T12:34:04.655Z,83.10
2023-03-11T12:36:34.117Z,81.50
2023-03-11T12:39:05.847Z,82.70
2023-03-11T12:41:38.789Z,81.50
2023-03-11T12:44:10.226Z,78.50
2023-03-11T12:46:59.918Z,79.00
2023-03-11T12:49:32.663Z,80.50
2023-03-11T12:52:05.027Z,74.10
2023-03-11T12:54:34.436Z,75.20
2023-03-11T12:57:05.457Z,75.40
2023-03-11T12:59:55.517Z,70.70
2023-03-11T13:02:40.709Z,71.70
2023-03-11T13:05:23.041Z,72.70
2023-03-11T13:07:55.275Z,72.60
2023-03-11T13:10:38.483Z,73.80
2023-03-11T13:13:23.939Z,71.10
2023-03-11T13:15:52.139Z,69.50
2023-03-11T13:18:24.764Z,89.10
2023-03-11T13:20:56.238Z,86.60
2023-03-11T13:23:31.454Z,65.90
2023-03-11T13:26:22.461Z,69.40
2023-03-11T13:28:57.975Z,65.20
2023-03-11T13:31:49.004Z,64.80
2023-03-11T13:34:17.058Z,67.60
2023-03-11T13:37:16.744Z,68.60
2023-03-11T13:39:48.680Z,66.50
2023-03-11T13:42:35.538Z,65.10
2023-03-11T13:45:05.098Z,66.40
2023-03-11T13:47:33.635Z,69.00
2023-03-11T13:50:09.365Z,70.10
2023-03-11T13:52:42.430Z,67.20
2023-03-11T13:55:21.970Z,64.80
2023-03-11T13:57:51.918Z,63.20
2023-03-11T14:00:24.209Z,65.50
2023-03-11T14:02:55.982Z,66.10
2023-03-11T14:05:30.111Z,66.10
2023-03-11T14:08:19.142Z,68.30
2023-03-11T14:10:55.902Z,67.40
2023-03-11T14:13:24.394Z,66.30
2023-03-11T14:15:59.403Z,67.30
2023-03-11T14:18:45.271Z,66.00
2023-03-11T14:21:22.767Z,66.70
2023-03-11T14:23:51.129Z,67.10
2023-03-11T14:26:20.834Z,61.80
2023-03-11T14:28:54.314Z,64.70
2023-03-11T14:31:30.275Z,65.40
2023-03-11T14:34:04.657Z,64.10
2023-03-11T14:36:43.434Z,65.10
2023-03-11T14:39:29.224Z,66.80
2023-03-11T14:41:58.844Z,68.70
2023-03-11T14:44:27.749Z,69.30
2023-03-11T14:47:04.946Z,67.50
2023-03-11T14:49:32.166Z,66.70
2023-03-11T14:52:05.648Z,67.80
2023-03-11T14:54:35.831Z,68.70
2023-03-11T14:57:09.249Z,69.10
2023-03-11T14:59:38.023Z,70.50
2023-03-11T15:02:23.862Z,73.40
2023-03-11T15:04:51.692Z,74.50
2023-03-11T15:07:20.617Z,75.40
2023-03-11T15:09:48.076Z,76.40
2023-03-11T15:12:31.569Z,77.10
2023-03-11T15:14:58.746Z,76.80
2023-03-11T15:17:42.736Z,77.60
2023-03-11T15:20:28.309Z,79.80
2023-03-11T15:23:00.946Z,78.40
2023-03-11T15:25:31.306Z,78.90
2023-03-11T15:27:58.200Z,78.80
2023-03-11T15:30:35.243Z,79.50
2023-03-11T15:33:02.226Z,79.90
2023-03-11T15:35:30.984Z,80.20
2023-03-11T15:38:23.754Z,80.60
2023-03-11T15:40:54.031Z,80.70
2023-03-11T15:43:26.608Z,80.30
2023-03-11T15:45:54.810Z,80.60
2023-03-11T15:48:22.778Z,78.80
2023-03-11T15:50:55.278Z,80.10
2023-03-11T15:53:24.422Z,80.00
2023-03-11T15:55:53.579Z,80.80
2023-03-11T15:58:21.172Z,79.40
2023-03-11T16:00:50.494Z,78.70
2023-03-11T16:03:18.244Z,80.20
2023-03-11T16:05:45.595Z,79.70
2023-03-11T16:08:12.578Z,82.30
2023-03-11T16:10:40.670Z,82.80
2023-03-11T16:13:10.137Z,82.30
2023-03-11T16:15:38.096Z,82.70
2023-03-11T16:18:07.608Z,83.90
2023-03-11T16:20:54.532Z,83.90
2023-03-11T16:23:25.601Z,84.50
2023-03-11T16:25:57.114Z,84.50
2023-03-11T16:28:24.221Z,85.80
2023-03-11T16:30:52.960Z,86.10
2023-03-11T16:33:19.771Z,86.90
2023-03-11T16:35:46.804Z,87.10
2023-03-11T16:38:14.333Z,87.00
2023-03-11T16:40:41.190Z,87.50
2023-03-11T16:43:11.345Z,88.30
2023-03-11T16:45:38.117Z,88.20
2023-03-11T16:48:06.572Z,88.20
2023-03-11T16:50:35.008Z,88.30
2023-03-11T16:53:03.164Z,89.10
2023-03-11T16:55:30.701Z,89.50
2023-03-11T16:57:57.563Z,90.50
2023-03-11T17:00:25.661Z,90.50
2023-03-11T17:02:52.650Z,91.70
2023-03-11T17:05:19.743Z,91.10
2023-03-11T17:07:47.627Z,91.30
2023-03-11T17:10:14.637Z,91.60
2023-03-11T17:12:41.428Z,92.30
2023-03-11T17:15:08.626Z,91.90
2023-03-11T17:17:35.832Z,92.30
2023-03-11T17:20:02.790Z,93.00
2023-03-11T17:22:29.590Z,92.70
2023-03-11T17:24:56.433Z,92.40
2023-03-11T17:27:23.270Z,92.30
2023-03-11T17:29:50.291Z,92.70
2023-03-11T17:32:17.597Z,93.20
2023-03-11T17:34:44.878Z,93.40
2023-03-11T17:37:12.813Z,93.60
2023-03-11T17:39:39.612Z,93.70
2023-03-11T17:42:06.516Z,94.00
2023-03-11T17:44:48.306Z,94.30
2023-03-11T17:47:19.895Z,94.10
2023-03-11T17:49:47.874Z,94.10
2023-03-11T17:52:14.761Z,94.50
2023-03-11T17:54:41.584Z,95.00
2023-03-11T17:57:08.435Z,94.80
2023-03-11T17:59:35.205Z,95.00
2023-03-11T18:02:02.261Z,94.80
2023-03-11T18:04:29.359Z,94.90
2023-03-11T18:06:56.378Z,95.70
2023-03-11T18:09:23.261Z,96.00
2023-03-11T18:11:50.133Z,96.00
2023-03-11T18:14:16.995Z,95.50
2023-03-11T18:16:43.998Z,95.30
2023-03-11T18:19:10.927Z,95.80
2023-03-11T18:21:37.709Z,95.80
2023-03-11T18:24:04.810Z,95.70
2023-03-11T18:26:31.673Z,97.70
2023-03-11T18:29:00.314Z,97.10
2023-03-11T18:31:29.263Z,96.70
2023-03-11T18:33:58.706Z,96.70
2023-03-11T18:36:30.547Z,96.90
2023-03-11T18:38:58.893Z,97.60
2023-03-11T18:41:27.151Z,97.70
2023-03-11T18:43:57.448Z,97.50
2023-03-11T18:46:26.407Z,97.70
2023-03-11T18:48:54.351Z,97.90
2023-03-11T18:51:21.203Z,97.70
2023-03-11T18:53:48.008Z,98.00
2023-03-11T18:56:16.613Z,98.80
2023-03-11T18:58:44.491Z,99.60
2023-03-11T19:01:15.600Z,99.90
2023-03-11T19:03:43.493Z,99.90
2023-03-11T19:06:12.945Z,99.90
2023-03-11T19:08:40.240Z,99.90
2023-03-11T19:11:08.930Z,99.90
2023-03-11T19:13:46.646Z,99.90
2023-03-11T19:16:15.570Z,99.90
2023-03-11T19:18:42.382Z,99.90
2023-03-11T19:21:11.625Z,99.90
2023-03-11T19:23:38.532Z,99.90
2023-03-11T19:26:05.871Z,99.90
2023-03-11T19:28:32.671Z,99.90
2023-03-11T19:31:00.150Z,99.90
2023-03-11T19:33:27.505Z,99.90
2023-03-11T19:35:56.678Z,99.90
2023-03-11T19:38:24.338Z,99.90
2023-03-11T19:40:53.497Z,99.90
2023-03-11T19:43:20.989Z,99.90
2023-03-11T19:45:49.742Z,99.90
2023-03-11T19:48:17.040Z,99.90
2023-03-11T19:50:44.060Z,99.90
2023-03-11T19:53:11.097Z,99.90
2023-03-11T19:55:42.070Z,99.90
2023-03-11T19:58:09.020Z,99.90
2023-03-11T20:00:36.067Z,99.90
2023-03-11T20:03:02.981Z,99.90
2023-03-11T20:05:29.859Z,99.90
2023-03-11T20:07:56.746Z,99.90
2023-03-11T20:10:25.945Z,99.90
2023-03-11T20:13:02.137Z,99.90
2023-03-11T20:15:30.952Z,99.90
2023-03-11T20:17:57.892Z,99.90
2023-03-11T20:20:24.854Z,99.90
2023-03-11T20:22:51.713Z,99.90
2023-03-11T20:25:18.659Z,99.90
2023-03-11T20:27:45.563Z,99.90
2023-03-11T20:30:13.555Z,99.90
2023-03-11T20:32:40.449Z,99.90
2023-03-11T20:35:07.651Z,99.90
2023-03-11T20:37:34.531Z,99.90
2023-03-11T20:40:01.449Z,99.90
2023-03-11T20:42:28.303Z,99.90
2023-03-11T20:44:55.217Z,99.90
2023-03-11T20:47:22.172Z,99.90
2023-03-11T20:49:49.167Z,99.90
2023-03-11T20:52:16.359Z,99.90
2023-03-11T20:54:43.404Z,99.90
2023-03-11T20:57:10.421Z,99.90
2023-03-11T20:59:37.156Z,99.90
2023-03-11T21:02:04.895Z,99.90
2023-03-11T21:04:31.905Z,99.90
2023-03-11T21:06:58.923Z,99.90
2023-03-11T21:09:25.861Z,99.90
2023-03-11T21:11:52.746Z,99.90
2023-03-11T21:14:19.757Z,99.90
2023-03-11T21:16:46.862Z,99.90
2023-03-11T21:19:14.096Z,99.90
2023-03-11T21:21:41.416Z,99.90
2023-03-11T21:24:08.435Z,99.90
2023-03-11T21:26:35.533Z,99.90
2023-03-11T21:29:02.626Z,99.90
2023-03-11T21:31:30.081Z,99.90
2023-03-11T21:33:58.838Z,99.90
2023-03-11T21:36:25.897Z,99.90
2023-03-11T21:38:52.919Z,99.90
2023-03-11T21:41:25.193Z,99.90
2023-03-11T21:43:55.162Z,99.90
2023-03-11T21:46:25.515Z,99.90
2023-03-11T21:48:52.442Z,99.90
2023-03-11T21:51:20.176Z,99.90
2023-03-11T21:53:47.545Z,99.90
2023-03-11T21:56:14.991Z,99.90
2023-03-11T21:58:42.736Z,99.90
2023-03-11T22:01:10.468Z,99.90
2023-03-11T22:03:37.908Z,99.90
2023-03-11T22:06:08.398Z,99.90
2023-03-11T22:08:35.888Z,99.90
2023-03-11T22:11:03.667Z,99.90
2023-03-11T22:13:30.536Z,99.90
2023-03-11T22:15:57.423Z,99.90
2023-03-11T22:18:24.301Z,99.90
2023-03-11T22:20:51.183Z,99.90
2023-03-11T22:23:17.931Z,99.90
2023-03-11T22:25:44.846Z,99.90
2023-03-11T22:28:12.960Z,99.90
2023-03-11T22:30:39.853Z,99.90
2023-03-11T22:33:07.249Z,99.90
2023-03-11T22:35:34.321Z,99.90
2023-03-11T22:38:01.238Z,99.90
2023-03-11T22:40:28.198Z,99.90
2023-03-11T22:42:55.120Z,99.90
2023-03-11T22:45:22.892Z,99.90
2023-03-11T22:47:50.384Z,99.90
2023-03-11T22:50:18.311Z,99.90
2023-03-11T22:52:45.603Z,99.90
2023-03-11T22:55:12.548Z,99.90
2023-03-11T22:57:39.388Z,99.90
2023-03-11T23:00:17.127Z,99.90
2023-03-11T23:02:45.346Z,99.90
2023-03-11T23:05:12.848Z,99.90
2023-03-11T23:07:40.451Z,99.90
2023-03-11T23:10:09.090Z,99.90
2023-03-11T23:12:36.713Z,99.90
2023-03-11T23:15:08.235Z,99.90
2023-03-11T23:17:35.210Z,99.90
2023-03-11T23:20:02.460Z,99.90
2023-03-11T23:22:29.272Z,99.90
2023-03-11T23:24:56.036Z,99.90
2023-03-11T23:27:22.883Z,99.90
2023-03-11T23:29:50.616Z,99.90
2023-03-11T23:32:17.503Z,99.90
2023-03-11T23:34:46.071Z,99.90
2023-03-11T23:37:12.893Z,99.90
2023-03-11T23:39:39.778Z,99.90
2023-03-11T23:42:22.660Z,99.90
2023-03-11T23:44:52.654Z,99.90
2023-03-11T23:47:19.598Z,99.90
2023-03-11T23:49:46.507Z,99.90
2023-03-11T23:52:13.450Z,99.90
2023-03-11T23:54:40.339Z,99.90
2023-03-11T23:57:07.195Z,99.90
2023-03-11T23:59:34.045Z,99.90
